EDDW Airport Information

Runway Information
Runway 05 Length 2297 ft width 75 ft
Elevation 0 ft Threshold 0 ft Heading 52
Runway 23 Length 2297 ft Width 75 ft
Elevation 13 ft Threshold 0 ft Heading 232
Runway 09 Length 6693 ft width 148 ft
Elevation 13 ft Threshold 0 ft Heading 88
Runway 27 Length 6693 ft Width 148 ft
Elevation 14 ft Threshold 0 ft Heading 268
Airport Frequencies
Type AFIS Name INFO Frequency 125.1 MHZ
Type APP Name RADAR Frequency 124.8 MHZ
Type ATIS Name ATIS Frequency 117.45 MHZ
Type GND Name GND Frequency 121.75 MHZ
Type TWR Name TWR Frequency 120.325 MHZ
Airport Navaids
Type VOR-DME Name Bremen Frequency 117450 KHZ
Airport Weather Information & NOTAM
ADDS - METARS form results

(0937 UTC 23 July 2018)
 
METAR text: EDDW 230920Z VRB04KT 9999 FEW040 24/12 Q1017 NOSIG
Conditions at: EDDW (BREMEN , DE) observed 0920 UTC 23 July 2018
Temperature: 24.0°C (75°F)
Dewpoint: 12.0°C (54°F) [RH = 47%]
Pressure (altimeter): 30.03 inches Hg (1017.0 mb)
Winds: variable direction winds at 5 MPH (4 knots; 2.1 m/s)
Visibility: 6 or more miles (10+ km)
Ceiling: at least 12,000 feet AGL
Clouds: few clouds at 4000 feet AGL
Weather: no significant weather observed at this time

METAR text: EDDW 230850Z VRB03KT 9999 FEW040 24/14 Q1017 NOSIG
Conditions at: EDDW (BREMEN , DE) observed 0850 UTC 23 July 2018
Temperature: 24.0°C (75°F)
Dewpoint: 14.0°C (57°F) [RH = 54%]
Pressure (altimeter): 30.03 inches Hg (1017.0 mb)
Winds: variable direction winds at 3 MPH (3 knots; 1.6 m/s)
Visibility: 6 or more miles (10+ km)
Ceiling: at least 12,000 feet AGL
Clouds: few clouds at 4000 feet AGL
Weather: no significant weather observed at this time